Time;durP1;ratioP1;P1;durP2;ratioP2;P2;SDS_P1;SDS_P2;PMS_P1;PMS_P2;Temp;Humidity;BMP_temperature;BMP_pressure;BME280_temperature;BME280_humidity;BME280_pressure;Samples;Min_cycle;Max_cycle;Signal;HPM_P1;HPM_P2
2022/09/27 00:02:20;;;;;;;1999.90;999.90;;;;;;;-144.65;100.00;64500.88;5012880;28;20110;-75
2022/09/27 00:04:46;;;;;;;1999.90;999.90;;;;;;;-144.65;100.00;64500.88;5012202;28;20049;-76
2022/09/27 00:07:11;;;;;;;1999.90;999.90;;;;;;;-144.65;100.00;64500.88;5012485;28;20390;-74
2022/09/27 00:09:37;;;;;;;1999.90;999.90;;;;;;;-144.65;100.00;64500.88;5014382;28;20030;-74
2022/09/27 00:12:02;;;;;;;1999.90;999.90;;;;;;;-144.65;100.00;64500.88;5017462;28;20475;-75
2022/09/27 00:14:28;;;;;;;1999.90;999.90;;;;;;;-144.65;100.00;64500.88;5015166;28;20046;-75
2022/09/27 00:16:53;;;;;;;1999.90;999.90;;;;;;;-144.65;100.00;64500.88;5012124;28;20502;-75
2022/09/27 00:19:24;;;;;;;1999.90;999.90;;;;;;;-144.65;100.00;64500.88;5011188;28;20034;-75
2022/09/27 00:21:49;;;;;;;1999.90;999.90;;;;;;;-144.65;100.00;64500.88;5012027;28;20482;-74
2022/09/27 00:24:18;;;;;;;1999.90;999.90;;;;;;;-144.65;100.00;64500.88;5011915;28;20026;-73
2022/09/27 00:26:45;;;;;;;1999.90;999.90;;;;;;;-144.65;100.00;64500.88;5011683;28;20494;-75
2022/09/27 00:29:11;;;;;;;1999.90;999.90;;;;;;;-144.65;100.00;64500.88;5011816;28;20065;-75
2022/09/27 00:31:37;;;;;;;1999.90;999.90;;;;;;;-144.65;100.00;64500.88;5012221;28;20017;-75
2022/09/27 00:34:04;;;;;;;1999.90;999.90;;;;;;;-144.65;100.00;64500.88;5011714;28;20026;-75
2022/09/27 00:36:30;;;;;;;1999.90;999.90;;;;;;;-144.65;100.00;64500.88;5011753;28;20029;-76
2022/09/27 00:38:58;;;;;;;1999.90;999.90;;;;;;;-144.65;100.00;64500.88;5011702;28;20037;-75
2022/09/27 00:41:31;;;;;;;1999.90;999.90;;;;;;;-144.65;100.00;64500.88;4993601;28;20117;-75
2022/09/27 00:44:03;;;;;;;1999.90;999.90;;;;;;;-144.65;100.00;64500.88;5011735;28;20025;-75
2022/09/27 00:46:42;;;;;;;1999.90;999.90;;;;;;;-144.65;100.00;64500.88;5011664;28;20442;-75
2022/09/27 00:49:13;;;;;;;1999.90;999.90;;;;;;;-144.65;100.00;64500.88;5011365;28;20029;-75
2022/09/27 00:51:41;;;;;;;1999.90;999.90;;;;;;;-144.65;100.00;64500.88;5011569;28;20160;-74
2022/09/27 00:54:10;;;;;;;1999.90;999.90;;;;;;;-144.65;100.00;64500.88;5011288;28;20018;-74
2022/09/27 00:56:36;;;;;;;1999.90;999.90;;;;;;;-144.65;100.00;64500.88;5011336;28;20037;-76
2022/09/27 00:59:13;;;;;;;1999.90;999.90;;;;;;;-144.65;100.00;64500.88;5012308;28;20018;-75
2022/09/27 01:01:39;;;;;;;1999.90;999.90;;;;;;;-144.65;100.00;64500.88;4994048;28;20022;-74
2022/09/27 01:04:06;;;;;;;1999.90;999.90;;;;;;;-144.65;100.00;64500.88;5008046;28;20085;-75
2022/09/27 01:06:32;;;;;;;1999.90;999.90;;;;;;;-144.65;100.00;64500.88;4999665;28;20022;-75
2022/09/27 01:08:58;;;;;;;1999.90;999.90;;;;;;;-144.65;100.00;64500.88;5010518;28;20406;-75
2022/09/27 01:11:40;;;;;;;1999.90;999.90;;;;;;;-144.65;100.00;64500.88;5010635;28;20081;-75
2022/09/27 01:14:38;;;;;;;1999.90;999.90;;;;;;;-144.65;100.00;64500.88;5010859;28;20108;-75
2022/09/27 01:17:09;;;;;;;1999.90;999.90;;;;;;;-144.65;100.00;64500.88;5010510;28;20026;-75
2022/09/27 01:20:09;;;;;;;1999.90;999.90;;;;;;;-144.65;100.00;64500.88;5010733;28;20030;-75
2022/09/27 01:22:43;;;;;;;1999.90;999.90;;;;;;;-144.65;100.00;64500.88;4986990;28;20030;-75
2022/09/27 01:25:42;;;;;;;1999.90;999.90;;;;;;;-144.65;100.00;64500.88;4990857;28;20471;-76
2022/09/27 01:28:19;;;;;;;1999.90;999.90;;;;;;;-144.65;100.00;64500.88;4990992;28;20023;-75
2022/09/27 01:30:52;;;;;;;1999.90;999.90;;;;;;;-144.65;100.00;64500.88;4973522;28;20018;-75
2022/09/27 01:33:31;;;;;;;1999.90;999.90;;;;;;;-144.65;100.00;64500.88;4990980;28;20099;-75
2022/09/27 01:36:25;;;;;;;1999.90;999.90;;;;;;;-144.65;100.00;64500.88;4990940;28;20479;-75
2022/09/27 01:38:55;;;;;;;1999.90;999.90;;;;;;;-144.65;100.00;64500.88;4990582;28;20487;-75
2022/09/27 01:41:32;;;;;;;1999.90;999.90;;;;;;;-144.65;100.00;64500.88;4990729;28;20076;-75
2022/09/27 01:44:07;;;;;;;1999.90;999.90;;;;;;;-144.65;100.00;64500.88;4990705;28;20022;-75
2022/09/27 01:46:40;;;;;;;1999.90;999.90;;;;;;;-144.65;100.00;64500.88;4990833;28;20057;-74
2022/09/27 01:49:23;;;;;;;1999.90;999.90;;;;;;;-144.65;100.00;64500.88;4990459;28;20403;-75
2022/09/27 01:51:59;;;;;;;1999.90;999.90;;;;;;;-144.65;100.00;64500.88;4990683;28;20030;-74
2022/09/27 01:54:36;;;;;;;1999.90;999.90;;;;;;;-144.65;100.00;64500.88;4989825;28;20034;-74
2022/09/27 01:57:04;;;;;;;1999.90;999.90;;;;;;;-144.65;100.00;64500.88;4991611;28;20053;-75
2022/09/27 01:59:37;;;;;;;1999.90;999.90;;;;;;;-144.65;100.00;64500.88;5000929;28;20109;-75
2022/09/27 02:02:08;;;;;;;1999.90;999.90;;;;;;;-144.65;100.00;64500.88;5013099;28;20422;-75
2022/09/27 02:04:37;;;;;;;1999.90;999.90;;;;;;;-144.65;100.00;64500.88;5011468;28;20085;-75
2022/09/27 02:07:10;;;;;;;1999.90;999.90;;;;;;;-144.65;100.00;64500.88;5011769;28;20121;-74
2022/09/27 02:09:58;;;;;;;1999.90;999.90;;;;;;;-144.65;100.00;64500.88;5011445;28;20085;-75
2022/09/27 02:12:30;;;;;;;1999.90;999.90;;;;;;;-144.65;100.00;64500.88;4991159;28;20018;-76
2022/09/27 02:15:11;;;;;;;1999.90;999.90;;;;;;;-144.65;100.00;64500.88;4990874;28;20018;-75
2022/09/27 02:17:46;;;;;;;1999.90;999.90;;;;;;;-144.65;100.00;64500.88;4991042;28;20087;-76
2022/09/27 02:20:16;;;;;;;1999.90;999.90;;;;;;;-144.65;100.00;64500.88;4990909;28;20487;-76
2022/09/27 02:22:47;;;;;;;1999.90;999.90;;;;;;;-144.65;100.00;64500.88;4990541;28;20022;-75
2022/09/27 02:25:22;;;;;;;1999.90;999.90;;;;;;;-144.65;100.00;64500.88;4990983;28;20501;-75
2022/09/27 02:27:48;;;;;;;1999.90;999.90;;;;;;;-144.65;100.00;64500.88;4973259;28;20122;-74
2022/09/27 02:30:14;;;;;;;1999.90;999.90;;;;;;;-144.65;100.00;64500.88;4991139;28;20109;-76
2022/09/27 02:32:41;;;;;;;1999.90;999.90;;;;;;;-144.65;100.00;64500.88;4991357;28;20030;-74
2022/09/27 02:35:22;;;;;;;1999.90;999.90;;;;;;;-144.65;100.00;64500.88;4990897;28;20034;-74
2022/09/27 02:37:48;;;;;;;1999.90;999.90;;;;;;;-144.65;100.00;64500.88;4990716;28;20428;-76
2022/09/27 02:40:13;;;;;;;1999.90;999.90;;;;;;;-144.65;100.00;64500.88;4990816;28;20027;-76
2022/09/27 02:42:41;;;;;;;1999.90;999.90;;;;;;;-144.65;100.00;64500.88;4990995;28;20027;-75
2022/09/27 02:45:08;;;;;;;1999.90;999.90;;;;;;;-144.65;100.00;64500.88;4990639;28;20505;-76
2022/09/27 02:48:17;;;;;;;1999.90;999.90;;;;;;;-144.65;100.00;64500.88;4990914;28;20022;-73
2022/09/27 02:50:51;;;;;;;1999.90;999.90;;;;;;;-144.65;100.00;64500.88;4990715;28;20062;-75
2022/09/27 02:53:29;;;;;;;1999.90;999.90;;;;;;;-144.65;100.00;64500.88;4973411;28;20034;-75
2022/09/27 02:56:00;;;;;;;1999.90;999.90;;;;;;;-144.65;100.00;64500.88;4992208;28;20057;-76
2022/09/27 02:58:32;;;;;;;1999.90;999.90;;;;;;;-144.65;100.00;64500.88;5002553;28;20030;-76
2022/09/27 03:01:12;;;;;;;1999.90;999.90;;;;;;;-144.65;100.00;64500.88;5010364;28;20042;-75
2022/09/27 03:03:58;;;;;;;1999.90;999.90;;;;;;;-144.65;100.00;64500.88;5019869;28;20046;-75
2022/09/27 03:06:24;;;;;;;1999.90;999.90;;;;;;;-144.65;100.00;64500.88;5033514;28;20500;-75
2022/09/27 03:08:50;;;;;;;1999.90;999.90;;;;;;;-144.65;100.00;64500.88;5033792;28;20026;-75
2022/09/27 03:11:16;;;;;;;1999.90;999.90;;;;;;;-144.65;100.00;64500.88;5016016;28;20018;-75
2022/09/27 03:13:43;;;;;;;1999.90;999.90;;;;;;;-144.65;100.00;64500.88;5033623;28;20057;-74
2022/09/27 03:16:09;;;;;;;1999.90;999.90;;;;;;;-144.65;100.00;64500.88;5033809;28;20438;-74
2022/09/27 03:18:34;;;;;;;1999.90;999.90;;;;;;;-144.65;100.00;64500.88;5033937;28;20059;-74
2022/09/27 03:20:59;;;;;;;1999.90;999.90;;;;;;;-144.65;100.00;64500.88;5016491;28;20057;-75
2022/09/27 03:23:25;;;;;;;1999.90;999.90;;;;;;;-144.65;100.00;64500.88;5033566;28;20021;-76
2022/09/27 03:25:50;;;;;;;1999.90;999.90;;;;;;;-144.65;100.00;64500.88;5033419;28;20033;-76
2022/09/27 03:28:16;;;;;;;1999.90;999.90;;;;;;;-144.65;100.00;64500.88;5033517;28;20379;-76
2022/09/27 03:30:44;;;;;;;1999.90;999.90;;;;;;;-144.65;100.00;64500.88;5033598;28;20040;-75
2022/09/27 03:33:09;;;;;;;1999.90;999.90;;;;;;;-144.65;100.00;64500.88;5033861;28;20064;-75
2022/09/27 03:35:35;;;;;;;1999.90;999.90;;;;;;;-144.65;100.00;64500.88;5033703;28;20058;-75
2022/09/27 03:38:01;;;;;;;1999.90;999.90;;;;;;;-144.65;100.00;64500.88;5033225;28;20025;-75
2022/09/27 03:40:26;;;;;;;1999.90;999.90;;;;;;;-144.65;100.00;64500.88;5033121;28;20072;-76
2022/09/27 03:42:51;;;;;;;1999.90;999.90;;;;;;;-144.65;100.00;64500.88;5015373;28;20087;-75
2022/09/27 03:45:17;;;;;;;1999.90;999.90;;;;;;;-144.65;100.00;64500.88;5033369;28;20040;-73
2022/09/27 03:47:42;;;;;;;1999.90;999.90;;;;;;;-144.65;100.00;64500.88;5033392;28;20025;-76
2022/09/27 03:50:10;;;;;;;1999.90;999.90;;;;;;;-144.65;100.00;64500.88;5010807;28;20110;-76
2022/09/27 03:52:36;;;;;;;1999.90;999.90;;;;;;;-144.65;100.00;64500.88;4995990;28;20387;-75
2022/09/27 03:55:02;;;;;;;1999.90;999.90;;;;;;;-144.65;100.00;64500.88;4999151;28;20046;-75
2022/09/27 03:57:29;;;;;;;1999.90;999.90;;;;;;;-144.65;100.00;64500.88;4993723;28;20484;-75
2022/09/27 03:59:54;;;;;;;1999.90;999.90;;;;;;;-144.65;100.00;64500.88;4976161;28;20027;-75
2022/09/27 04:02:20;;;;;;;1999.90;999.90;;;;;;;-144.65;100.00;64500.88;4994010;28;20085;-75
2022/09/27 04:04:46;;;;;;;1999.90;999.90;;;;;;;-144.65;100.00;64500.88;4993242;28;20177;-75
2022/09/27 04:07:12;;;;;;;1999.90;999.90;;;;;;;-144.65;100.00;64500.88;4993424;28;20030;-75
2022/09/27 04:09:37;;;;;;;1999.90;999.90;;;;;;;-144.65;100.00;64500.88;4976023;28;20030;-76
2022/09/27 04:12:03;;;;;;;1999.90;999.90;;;;;;;-144.65;100.00;64500.88;4993362;28;20035;-74
2022/09/27 04:14:28;;;;;;;1999.90;999.90;;;;;;;-144.65;100.00;64500.88;4993304;28;20030;-75
2022/09/27 04:16:54;;;;;;;1999.90;999.90;;;;;;;-144.65;100.00;64500.88;4992660;28;20038;-75
2022/09/27 04:19:20;;;;;;;1999.90;999.90;;;;;;;-144.65;100.00;64500.88;4993156;28;20033;-73
2022/09/27 04:21:45;;;;;;;1999.90;999.90;;;;;;;-144.65;100.00;64500.88;4993167;28;20034;-73
2022/09/27 04:24:11;;;;;;;1999.90;999.90;;;;;;;-144.65;100.00;64500.88;4993495;28;20034;-75
2022/09/27 04:26:37;;;;;;;1999.90;999.90;;;;;;;-144.65;100.00;64500.88;4992877;28;20034;-75
2022/09/27 04:29:02;;;;;;;1999.90;999.90;;;;;;;-144.65;100.00;64500.88;4992884;28;20117;-75
2022/09/27 04:31:28;;;;;;;1999.90;999.90;;;;;;;-144.65;100.00;64500.88;4993920;28;20105;-75
2022/09/27 04:33:54;;;;;;;1999.90;999.90;;;;;;;-144.65;100.00;64500.88;4993200;28;20026;-75
2022/09/27 04:36:27;;;;;;;1999.90;999.90;;;;;;;-144.65;100.00;64500.88;4992944;28;20131;-75
2022/09/27 04:38:54;;;;;;;1999.90;999.90;;;;;;;-144.65;100.00;64500.88;4992911;28;20042;-75
2022/09/27 04:41:20;;;;;;;1999.90;999.90;;;;;;;-144.65;100.00;64500.88;4992733;28;20030;-75
2022/09/27 04:43:46;;;;;;;1999.90;999.90;;;;;;;-144.65;100.00;64500.88;4992660;28;20017;-76
2022/09/27 04:46:12;;;;;;;1999.90;999.90;;;;;;;-144.65;100.00;64500.88;4992628;28;20036;-75
2022/09/27 04:48:38;;;;;;;1999.90;999.90;;;;;;;-144.65;100.00;64500.88;4992894;28;20034;-75
2022/09/27 04:51:04;;;;;;;1999.90;999.90;;;;;;;-144.65;100.00;64500.88;4992694;28;20695;-76
2022/09/27 04:53:30;;;;;;;1999.90;999.90;;;;;;;-144.65;100.00;64500.88;4992858;28;20108;-74
2022/09/27 04:55:56;;;;;;;1999.90;999.90;;;;;;;-144.65;100.00;64500.88;4992694;28;20072;-76
2022/09/27 04:58:22;;;;;;;1999.90;999.90;;;;;;;-144.65;100.00;64500.88;4992723;28;20470;-76
2022/09/27 05:00:51;;;;;;;1999.90;999.90;;;;;;;-144.65;100.00;64500.88;5004601;28;20071;-76
2022/09/27 05:03:17;;;;;;;1999.90;999.90;;;;;;;-144.65;100.00;64500.88;5032112;28;20052;-75
2022/09/27 05:05:43;;;;;;;1999.90;999.90;;;;;;;-144.65;100.00;64500.88;5032127;28;20033;-74
2022/09/27 05:08:08;;;;;;;1999.90;999.90;;;;;;;-144.65;100.00;64500.88;5010448;28;20386;-73
2022/09/27 05:10:33;;;;;;;1999.90;999.90;;;;;;;-144.65;100.00;64500.88;5025152;28;20072;-75
2022/09/27 05:12:59;;;;;;;1999.90;999.90;;;;;;;-144.65;100.00;64500.88;5030700;28;20076;-75
2022/09/27 05:15:24;;;;;;;1999.90;999.90;;;;;;;-144.65;100.00;64500.88;5011834;28;20057;-76
2022/09/27 05:17:51;;;;;;;1999.90;999.90;;;;;;;-144.65;100.00;64500.88;5011376;28;20058;-75
2022/09/27 05:20:16;;;;;;;1999.90;999.90;;;;;;;-144.65;100.00;64500.88;5011492;28;20405;-75
2022/09/27 05:22:41;;;;;;;1999.90;999.90;;;;;;;-144.65;100.00;64500.88;5011802;28;20030;-76
2022/09/27 05:25:08;;;;;;;1999.90;999.90;;;;;;;-144.65;100.00;64500.88;5011293;28;20510;-74
2022/09/27 05:27:33;;;;;;;1999.90;999.90;;;;;;;-144.65;100.00;64500.88;5010538;28;20068;-75
2022/09/27 05:30:00;;;;;;;1999.90;999.90;;;;;;;-144.65;100.00;64500.88;5011045;28;20038;-74
2022/09/27 05:32:26;;;;;;;1999.90;999.90;;;;;;;-144.65;100.00;64500.88;5011875;28;20080;-75
2022/09/27 05:34:52;;;;;;;1999.90;999.90;;;;;;;-144.65;100.00;64500.88;5010479;28;20034;-76
2022/09/27 05:37:18;;;;;;;1999.90;999.90;;;;;;;-144.65;100.00;64500.88;5010865;28;20406;-75
2022/09/27 05:39:43;;;;;;;1999.90;999.90;;;;;;;-144.65;100.00;64500.88;5014879;28;20026;-76
2022/09/27 05:42:12;;;;;;;1999.90;999.90;;;;;;;-144.65;100.00;64500.88;5021871;28;20049;-76
2022/09/27 05:44:38;;;;;;;1999.90;999.90;;;;;;;-144.65;100.00;64500.88;5024288;28;20107;-78
2022/09/27 05:47:04;;;;;;;1999.90;999.90;;;;;;;-144.65;100.00;64500.88;5022523;28;20749;-79
2022/09/27 05:49:32;;;;;;;1999.90;999.90;;;;;;;-144.65;100.00;64500.88;5015837;28;20022;-76
2022/09/27 05:51:58;;;;;;;1999.90;999.90;;;;;;;-144.65;100.00;64500.88;5021521;28;20018;-74
2022/09/27 05:54:24;;;;;;;1999.90;999.90;;;;;;;-144.65;100.00;64500.88;5016291;28;20022;-75
2022/09/27 05:56:53;;;;;;;1999.90;999.90;;;;;;;-144.65;100.00;64500.88;4993514;28;20055;-74
2022/09/27 05:59:19;;;;;;;1999.90;999.90;;;;;;;-144.65;100.00;64500.88;5010902;28;20141;-75
2022/09/27 06:01:44;;;;;;;1999.90;999.90;;;;;;;-144.65;100.00;64500.88;5009976;28;20025;-76
2022/09/27 06:04:09;;;;;;;1999.90;999.90;;;;;;;-144.65;100.00;64500.88;4998190;28;20046;-76
2022/09/27 06:06:36;;;;;;;1999.90;999.90;;;;;;;-144.65;100.00;64500.88;5011056;28;20038;-76
2022/09/27 06:09:01;;;;;;;1999.90;999.90;;;;;;;-144.65;100.00;64500.88;5011131;28;20546;-76
2022/09/27 06:11:27;;;;;;;1999.90;999.90;;;;;;;-144.65;100.00;64500.88;5010968;28;20125;-75
2022/09/27 06:13:52;;;;;;;1999.90;999.90;;;;;;;-144.65;100.00;64500.88;5011218;28;20367;-77
2022/09/27 06:16:18;;;;;;;1999.90;999.90;;;;;;;-144.65;100.00;64500.88;5011348;28;20025;-76
2022/09/27 06:18:43;;;;;;;1999.90;999.90;;;;;;;-144.65;100.00;64500.88;5013473;28;20505;-75
2022/09/27 06:21:08;;;;;;;1999.90;999.90;;;;;;;-144.65;100.00;64500.88;5010772;28;20040;-74
2022/09/27 06:23:34;;;;;;;1999.90;999.90;;;;;;;-144.65;100.00;64500.88;5010728;28;20029;-74
2022/09/27 06:26:02;;;;;;;1999.90;999.90;;;;;;;-144.65;100.00;64500.88;5011319;28;20120;-73
2022/09/27 06:28:28;;;;;;;1999.90;999.90;;;;;;;-144.65;100.00;64500.88;5011317;28;20022;-76
2022/09/27 06:30:53;;;;;;;1999.90;999.90;;;;;;;-144.65;100.00;64500.88;5011256;28;20068;-75
2022/09/27 06:33:19;;;;;;;1999.90;999.90;;;;;;;-144.65;100.00;64500.88;4995599;28;20022;-75
2022/09/27 06:35:48;;;;;;;1999.90;999.90;;;;;;;-144.65;100.00;64500.88;4991624;28;20037;-74
2022/09/27 06:38:15;;;;;;;1999.90;999.90;;;;;;;-144.65;100.00;64500.88;4999122;28;20096;-74
2022/09/27 06:40:45;;;;;;;1999.90;999.90;;;;;;;-144.65;100.00;64500.88;5014601;28;20061;-75
2022/09/27 06:43:15;;;;;;;1999.90;999.90;;;;;;;-144.65;100.00;64500.88;5014682;28;20037;-75
2022/09/27 06:45:41;;;;;;;1999.90;999.90;;;;;;;-144.65;100.00;64500.88;4998061;28;20029;-74
2022/09/27 06:48:09;;;;;;;1999.90;999.90;;;;;;;-144.65;100.00;64500.88;5016436;28;20736;-75
2022/09/27 06:50:36;;;;;;;1999.90;999.90;;;;;;;-144.65;100.00;64500.88;5019754;28;20018;-75
2022/09/27 06:53:04;;;;;;;1999.90;999.90;;;;;;;-144.65;100.00;64500.88;5020414;28;20037;-74
2022/09/27 06:55:29;;;;;;;1999.90;999.90;;;;;;;-144.65;100.00;64500.88;5017843;28;20383;-74
2022/09/27 07:00:41;;;;;;;1999.90;999.90;;;;;;;-144.65;100.00;64500.88;4983458;28;20041;-74
2022/09/27 07:03:10;;;;;;;1999.90;999.90;;;;;;;-144.65;100.00;64500.88;5014276;28;20499;-75
2022/09/27 07:05:40;;;;;;;1999.90;999.90;;;;;;;-144.65;100.00;64500.88;5024122;28;20120;-75
2022/09/27 07:08:05;;;;;;;1999.90;999.90;;;;;;;-144.65;100.00;64500.88;5022405;28;20109;-75
2022/09/27 07:10:36;;;;;;;1999.90;999.90;;;;;;;-144.65;100.00;64500.88;5027610;28;20065;-75
2022/09/27 07:13:07;;;;;;;1999.90;999.90;;;;;;;-144.65;100.00;64500.88;5025399;28;20430;-76
2022/09/27 07:15:35;;;;;;;1999.90;999.90;;;;;;;-144.65;100.00;64500.88;5022646;28;20030;-75
2022/09/27 07:18:03;;;;;;;1999.90;999.90;;;;;;;-144.65;100.00;64500.88;5023105;28;20025;-75
2022/09/27 07:20:28;;;;;;;1999.90;999.90;;;;;;;-144.65;100.00;64500.88;5024255;28;20036;-75
2022/09/27 07:22:54;;;;;;;1999.90;999.90;;;;;;;-144.65;100.00;64500.88;5019564;28;20387;-74
2022/09/27 07:25:20;;;;;;;1999.90;999.90;;;;;;;-144.65;100.00;64500.88;5025560;28;20041;-74
2022/09/27 07:41:39;;;;;;;1999.90;999.90;;;;;;;14.07;100.00;96331.44;5082573;27;20390;-72
2022/09/27 07:44:06;;;;;;;1999.90;999.90;;;;;;;14.12;100.00;96331.19;5071130;28;20032;-73
2022/09/27 07:46:32;;;;;;;1999.90;999.90;;;;;;;14.04;100.00;96329.41;5067287;28;20021;-72
2022/09/27 07:48:57;;;;;;;1999.90;999.90;;;;;;;13.79;100.00;96324.13;5066640;28;20024;-73
2022/09/27 07:51:23;;;;;;;1999.90;999.90;;;;;;;13.76;100.00;96329.53;5066643;28;20024;-73
2022/09/27 07:53:48;;;;;;;1999.90;999.90;;;;;;;13.79;100.00;96340.63;5063138;28;21115;-73
2022/09/27 07:56:13;;;;;;;1999.90;999.90;;;;;;;13.93;100.00;96335.47;5066342;28;20102;-72
2022/09/27 07:58:39;;;;;;;1999.90;999.90;;;;;;;13.96;100.00;96333.97;5065607;28;20048;-73
2022/09/27 08:01:04;;;;;;;1999.90;999.90;;;;;;;14.01;100.00;96346.63;5067288;28;20043;-73
2022/09/27 08:03:30;;;;;;;1999.90;999.90;;;;;;;14.06;100.00;96332.63;5068307;28;20078;-73
2022/09/27 08:05:55;;;;;;;1999.90;999.90;;;;;;;14.26;100.00;96339.75;5065103;28;20021;-73
2022/09/27 08:08:21;;;;;;;1999.90;999.90;;;;;;;14.58;100.00;96335.78;5066280;28;20020;-72
2022/09/27 08:10:46;;;;;;;1999.90;999.90;;;;;;;14.61;100.00;96337.00;5066238;28;20043;-71
2022/09/27 08:13:13;;;;;;;1999.90;999.90;;;;;;;14.54;100.00;96337.66;5064680;28;20591;-73
2022/09/27 08:15:38;;;;;;;1999.90;999.90;;;;;;;14.43;100.00;96322.88;5064447;28;20033;-73
2022/09/27 08:18:05;;;;;;;1999.90;999.90;;;;;;;14.30;100.00;96332.38;5065807;28;20072;-73
2022/09/27 08:20:30;;;;;;;1999.90;999.90;;;;;;;14.04;100.00;96329.41;5065643;28;20560;-73
2022/09/27 08:22:56;;;;;;;1999.90;999.90;;;;;;;13.75;100.00;96325.97;5065519;28;20104;-73
2022/09/27 08:25:23;;;;;;;1999.90;999.90;;;;;;;13.87;100.00;96331.41;5066495;28;20029;-73
2022/09/27 08:27:59;;;;;;;1999.90;999.90;;;;;;;13.87;100.00;96330.59;5067452;28;20393;-73
2022/09/27 08:30:25;;;;;;;1999.90;999.90;;;;;;;13.85;100.00;96336.44;5066775;28;20037;-72
2022/09/27 08:32:55;;;;;;;1999.90;999.90;;;;;;;13.85;100.00;96330.94;5067013;28;20107;-73
2022/09/27 08:35:21;;;;;;;1999.90;999.90;;;;;;;14.10;100.00;96341.72;5066892;28;20020;-73
2022/09/27 08:37:58;;;;;;;1999.90;999.90;;;;;;;14.31;100.00;96333.97;5065550;28;20535;-73
2022/09/27 08:40:43;;;;;;;1999.90;999.90;;;;;;;14.42;100.00;96329.53;5065564;28;20052;-74
2022/09/27 08:43:28;;;;;;;1999.90;999.90;;;;;;;14.71;100.00;96333.69;5053543;28;20424;-73
2022/09/27 08:46:06;;;;;;;1999.90;999.90;;;;;;;14.73;100.00;96332.16;5053583;28;20036;-72
2022/09/27 08:48:33;;;;;;;1999.90;999.90;;;;;;;14.67;100.00;96330.06;5053436;28;20075;-73
2022/09/27 08:51:01;;;;;;;1999.90;999.90;;;;;;;14.69;100.00;96334.03;5053354;28;20061;-72
2022/09/27 08:53:32;;;;;;;1999.90;999.90;;;;;;;14.89;100.00;96332.88;5051894;28;20029;-73
2022/09/27 08:56:01;;;;;;;1999.90;999.90;;;;;;;15.16;100.00;96335.78;5053122;28;20036;-73
2022/09/27 08:58:32;;;;;;;1999.90;999.90;;;;;;;15.04;100.00;96347.72;5053352;28;20029;-73
2022/09/27 09:01:02;;;;;;;1999.90;999.90;;;;;;;14.69;100.00;96331.28;5053254;28;20033;-72
2022/09/27 09:03:31;;;;;;;1999.90;999.90;;;;;;;14.38;100.00;96339.66;5053269;28;20033;-72
2022/09/27 09:05:59;;;;;;;1999.90;999.90;;;;;;;14.23;100.00;96338.50;5053701;28;20036;-72
2022/09/27 09:08:52;;;;;;;1999.90;999.90;;;;;;;14.00;100.00;96336.78;5053246;28;20028;-72
2022/09/27 09:14:25;;;;;;;1999.90;999.90;;;;;;;13.71;100.00;96341.59;5053331;28;20112;-72
2022/09/27 09:17:03;;;;;;;1999.90;999.90;;;;;;;13.60;100.00;96337.78;5052790;28;20060;-71
2022/09/27 09:19:43;;;;;;;1999.90;999.90;;;;;;;13.52;100.00;96332.47;5053054;28;20028;-72
2022/09/27 09:22:27;;;;;;;1999.90;999.90;;;;;;;13.52;100.00;96341.50;5051664;28;20032;-73
2022/09/27 09:24:55;;;;;;;1999.90;999.90;;;;;;;13.54;100.00;96339.19;5052946;28;20112;-72
2022/09/27 09:27:34;;;;;;;1999.90;999.90;;;;;;;13.59;100.00;96340.91;5052819;28;20039;-72
2022/09/27 09:30:09;;;;;;;1999.90;999.90;;;;;;;13.53;100.00;96332.13;5052495;28;20032;-72
2022/09/27 09:33:04;;;;;;;1999.90;999.90;;;;;;;13.54;100.00;96335.66;5052910;28;20462;-72
2022/09/27 09:35:41;;;;;;;1999.90;999.90;;;;;;;13.62;100.00;96331.94;5053096;28;20025;-72
2022/09/27 09:38:24;;;;;;;1999.90;999.90;;;;;;;13.73;100.00;96336.53;5056900;28;20021;-72
2022/09/27 09:41:10;;;;;;;1999.90;999.90;;;;;;;13.74;100.00;96332.66;5072448;28;20099;-72
2022/09/27 09:43:50;;;;;;;1999.90;999.90;;;;;;;13.60;100.00;96321.28;5071899;28;20032;-72
2022/09/27 09:46:29;;;;;;;1999.90;999.90;;;;;;;13.46;100.00;96320.94;5072860;28;20024;-73
2022/09/27 09:49:13;;;;;;;1999.90;999.90;;;;;;;13.29;100.00;96341.31;5071091;28;20488;-72
2022/09/27 09:51:46;;;;;;;1999.90;999.90;;;;;;;13.27;100.00;96334.56;5072125;28;20035;-73
2022/09/27 09:54:25;;;;;;;1999.90;999.90;;;;;;;13.25;100.00;96331.41;5071333;28;20392;-72
2022/09/27 09:57:03;;;;;;;1999.90;999.90;;;;;;;13.26;100.00;96332.97;5072197;28;20035;-72
2022/09/27 09:59:44;;;;;;;1999.90;999.90;;;;;;;13.19;100.00;96335.53;5072181;28;20036;-72
2022/09/27 10:02:32;;;;;;;1999.90;999.90;;;;;;;13.29;100.00;96335.81;5072207;28;20024;-72
2022/09/27 10:04:57;;;;;;;1999.90;999.90;;;;;;;13.31;100.00;96340.97;5070898;28;20480;-72
2022/09/27 10:07:24;;;;;;;1999.90;999.90;;;;;;;13.33;100.00;96355.13;5070655;28;20078;-71
2022/09/27 10:09:53;;;;;;;1999.90;999.90;;;;;;;13.24;100.00;96349.81;5071842;28;20036;-72
2022/09/27 10:12:18;;;;;;;1999.90;999.90;;;;;;;13.18;100.00;96350.41;5064565;28;20033;-72
2022/09/27 10:14:49;;;;;;;1999.90;999.90;;;;;;;12.98;100.00;96351.38;5051870;28;20036;-72
2022/09/27 10:17:19;;;;;;;1999.90;999.90;;;;;;;13.07;100.00;96357.53;5051796;28;20112;-72
2022/09/27 10:19:47;;;;;;;1999.90;999.90;;;;;;;12.98;100.00;96373.34;5051686;28;20020;-72
2022/09/27 10:22:17;;;;;;;1999.90;999.90;;;;;;;13.01;100.00;96369.91;5051595;28;20033;-72
2022/09/27 10:25:04;;;;;;;1999.90;999.90;;;;;;;12.80;100.00;96337.97;5051581;28;20021;-71
2022/09/27 10:27:43;;;;;;;1999.90;999.90;;;;;;;12.68;100.00;96331.75;5051358;28;20037;-71
2022/09/27 10:30:30;;;;;;;1999.90;999.90;;;;;;;12.61;100.00;96335.09;5051125;28;20433;-73
2022/09/27 10:33:04;;;;;;;1999.90;999.90;;;;;;;12.57;100.00;96334.16;5050028;28;20036;-73
2022/09/27 10:35:29;;;;;;;1999.90;999.90;;;;;;;12.54;100.00;96326.63;5051717;28;20485;-73
2022/09/27 10:38:20;;;;;;;1999.90;999.90;;;;;;;12.45;100.00;96325.19;5051660;28;20032;-73
2022/09/27 10:40:47;;;;;;;1999.90;999.90;;;;;;;12.34;100.00;96330.38;5050885;28;20083;-73
2022/09/27 10:43:35;;;;;;;1999.90;999.90;;;;;;;12.31;100.00;96344.75;5051037;28;20029;-72
2022/09/27 10:46:16;;;;;;;1999.90;999.90;;;;;;;12.48;100.00;96344.50;5051222;28;20029;-72
2022/09/27 10:48:41;;;;;;;1999.90;999.90;;;;;;;12.63;100.00;96346.50;5051000;28;20043;-72
2022/09/27 10:51:23;;;;;;;1999.90;999.90;;;;;;;12.88;100.00;96339.78;5049838;28;20032;-73
2022/09/27 10:53:49;;;;;;;1999.90;999.90;;;;;;;13.09;100.00;96336.06;5050260;28;20041;-73
2022/09/27 10:56:34;;;;;;;1999.90;999.90;;;;;;;13.46;100.00;96347.63;5052646;28;20108;-73
2022/09/27 10:59:01;;;;;;;1999.90;999.90;;;;;;;13.88;100.00;96335.72;5053335;28;20079;-73
2022/09/27 11:01:39;;;;;;;1999.90;999.90;;;;;;;14.38;100.00;96336.91;5052289;28;20055;-73
2022/09/27 11:04:05;;;;;;;1999.90;999.90;;;;;;;14.70;100.00;96343.91;5050757;28;20135;-73
2022/09/27 11:06:36;;;;;;;1999.90;999.90;;;;;;;14.67;100.00;96341.88;5051412;28;20907;-73
2022/09/27 11:09:17;;;;;;;1999.90;999.90;;;;;;;14.72;100.00;96333.31;5050968;28;20174;-73
2022/09/27 11:11:44;;;;;;;1999.90;999.90;;;;;;;14.78;100.00;96337.41;5050797;28;20136;-73